Time;durP1;ratioP1;P1;durP2;ratioP2;P2;SDS_P1;SDS_P2;PMS_P1;PMS_P2;Temp;Humidity;BMP_temperature;BMP_pressure;BME280_temperature;BME280_humidity;BME280_pressure;Samples;Min_cycle;Max_cycle;Signal;HPM_P1;HPM_P2
2022/05/24 00:02:11;;;;;;;3.05;1.80;;;16.30;99.20;;;15.26;60.19;99747.00;4970262;28;20034;-75
2022/05/24 00:04:37;;;;;;;;;;;16.30;99.10;;;15.27;60.01;99727.47;4986077;28;20450;-75
2022/05/24 00:07:03;;;;;;;7.07;2.58;;;16.40;99.10;;;15.28;59.82;99729.16;4997793;28;19917;-76
2022/05/24 00:09:29;;;;;;;2.67;1.92;;;16.40;99.10;;;15.32;59.87;99725.28;4979104;28;20034;-75
2022/05/24 00:11:54;;;;;;;7.05;2.30;;;16.40;98.90;;;15.36;59.70;99720.56;4997546;28;20108;-76
2022/05/24 00:15:19;;;;;;;;;;;16.40;99.40;;;15.30;59.41;99718.41;4998505;28;20542;-76
2022/05/24 00:17:07;;;;;;;4.85;1.80;;;16.40;99.00;;;15.31;59.83;99720.09;4979691;28;19913;-75
2022/05/24 00:19:34;;;;;;;6.22;1.95;;;16.40;99.00;;;15.37;59.56;99722.25;4977478;28;20038;-75
2022/05/24 00:22:00;;;;;;;7.18;2.30;;;16.40;98.90;;;15.39;59.19;99723.78;4995741;28;20040;-75
2022/05/24 00:24:26;;;;;;;2.90;1.80;;;16.40;98.90;;;15.35;59.39;99719.72;5012958;28;21459;-76
2022/05/24 00:26:52;;;;;;;6.43;2.17;;;16.40;98.90;;;15.41;59.23;99725.50;4991517;28;20201;-76
2022/05/24 00:29:18;;;;;;;4.80;2.05;;;16.40;98.90;;;15.39;59.27;99709.69;4990768;28;20052;-75
2022/05/24 00:31:43;;;;;;;;;;;16.40;99.20;;;15.35;59.26;99716.22;5004602;28;20045;-75
2022/05/24 00:34:09;;;;;;;5.78;2.05;;;16.40;98.80;;;15.36;59.46;99708.16;4985193;28;19929;-76
2022/05/24 00:36:35;;;;;;;;;;;16.40;99.20;;;15.33;59.29;99711.06;4978464;28;20116;-75
2022/05/24 00:39:01;;;;;;;6.85;2.10;;;16.40;98.90;;;15.36;59.29;99705.50;4997707;28;19921;-75
2022/05/24 00:41:30;;;;;;;;;;;16.40;99.30;;;15.33;59.49;99708.41;4984716;28;20025;-75
2022/05/24 00:44:03;;;;;;;4.82;2.08;;;16.40;99.00;;;15.33;59.57;99705.75;4990332;28;19959;-75
2022/05/24 00:47:23;;;;;;;6.47;2.17;;;16.40;98.90;;;15.38;59.08;99703.56;5001013;28;20034;-75
2022/05/24 00:49:56;;;;;;;4.90;2.35;;;16.40;98.80;;;15.38;59.40;99698.25;5004552;28;20033;-75
2022/05/24 00:52:54;;;;;;;7.82;2.05;;;16.40;98.70;;;15.38;59.05;99698.25;4954515;28;20095;-75
2022/05/24 00:55:22;;;;;;;9.82;1.90;;;16.50;98.60;;;15.45;58.91;99695.94;4972476;28;20049;-75
2022/05/24 00:58:37;;;;;;;8.63;2.00;;;16.40;98.50;;;15.40;58.63;99700.78;5003277;28;20571;-75
2022/05/24 01:01:15;;;;;;;4.63;2.28;;;16.50;98.60;;;15.45;58.79;99703.88;4967881;28;20105;-75
2022/05/24 01:03:41;;;;;;;5.35;2.10;;;16.50;98.50;;;15.49;58.51;99694.72;4999815;28;21989;-75
2022/05/24 01:06:07;;;;;;;2.00;1.52;;;16.60;98.70;;;15.42;58.88;99692.69;4992228;28;20046;-76
2022/05/24 01:08:32;;;;;;;;;;;16.50;98.80;;;15.38;58.93;99687.63;4992342;28;20564;-75
2022/05/24 01:10:59;;;;;;;4.40;2.10;;;16.50;98.80;;;15.39;59.17;99691.13;4975981;28;19910;-76
2022/05/24 01:13:29;;;;;;;7.78;2.30;;;16.50;98.60;;;15.43;58.65;99684.59;4984846;28;20033;-75
2022/05/24 01:15:55;;;;;;;4.45;2.40;;;16.50;98.70;;;15.42;59.06;99690.88;4979499;28;20056;-74
2022/05/24 01:18:24;;;;;;;9.80;2.00;;;16.40;98.70;;;15.44;58.92;99685.44;5014595;28;20033;-76
2022/05/24 01:20:59;;;;;;;6.25;2.03;;;16.50;98.50;;;15.44;58.48;99698.69;4984307;28;20437;-75
2022/05/24 01:23:57;;;;;;;7.88;2.25;;;16.50;99.00;;;15.50;59.53;99700.84;5016292;28;20112;-75
2022/05/24 01:26:51;;;;;;;9.90;2.42;;;16.50;99.90;;;15.40;61.36;99698.13;4986855;28;20146;-75
2022/05/24 01:29:20;;;;;;;4.47;2.22;;;16.40;99.90;;;15.36;62.13;99696.69;5001002;28;20099;-76
2022/05/24 01:37:17;;;;;;;7.30;2.33;;;16.20;99.90;;;15.10;62.58;99675.00;4999813;28;20025;-76
2022/05/24 01:39:47;;;;;;;3.95;1.90;;;16.10;99.90;;;15.07;61.72;99668.09;4974936;28;20045;-75
2022/05/24 01:42:14;;;;;;;10.18;2.25;;;16.20;99.90;;;15.05;62.63;99671.84;4983729;28;20115;-75
2022/05/24 01:45:03;;;;;;;5.40;2.38;;;16.10;99.90;;;15.04;63.91;99667.53;4980479;28;20068;-75
2022/05/24 01:47:31;;;;;;;7.25;2.20;;;16.00;99.90;;;14.82;65.57;99657.84;4996214;28;20037;-75
2022/05/24 01:50:03;;;;;;;7.88;2.58;;;15.90;99.90;;;14.77;65.63;99643.16;5002487;28;20032;-74
2022/05/24 01:52:32;;;;;;;4.47;2.20;;;15.80;99.90;;;14.63;66.59;99637.28;4989947;28;20394;-74
2022/05/24 01:55:06;;;;;;;6.10;2.88;;;15.70;99.90;;;14.53;67.17;99632.69;4985030;28;20425;-75
2022/05/24 01:57:51;;;;;;;8.07;2.33;;;15.70;99.90;;;14.52;67.14;99620.44;5011467;28;20025;-76
2022/05/24 02:00:17;;;;;;;8.50;2.30;;;15.70;99.90;;;14.52;67.51;99620.44;4992334;28;20038;-75
2022/05/24 02:02:44;;;;;;;4.50;2.25;;;15.70;99.90;;;14.54;67.03;99622.97;4945787;28;20028;-75
2022/05/24 02:05:12;;;;;;;11.73;2.58;;;15.70;99.90;;;14.52;67.70;99624.88;5018301;28;20450;-75
2022/05/24 02:07:39;;;;;;;11.15;2.40;;;15.60;99.90;;;14.52;67.47;99625.72;4989801;28;20058;-75
2022/05/24 02:10:07;;;;;;;4.97;2.03;;;15.60;99.90;;;14.48;67.97;99621.63;4965956;28;20034;-75
2022/05/24 02:12:44;;;;;;;8.25;2.22;;;15.60;99.90;;;14.49;67.84;99607.44;4992407;28;20017;-75
2022/05/24 02:15:24;;;;;;;5.18;2.53;;;15.60;99.90;;;14.38;68.77;99596.84;5013613;28;20091;-76
2022/05/24 02:18:03;;;;;;;5.90;2.05;;;15.50;99.90;;;14.27;69.53;99596.88;5021390;28;20112;-76
2022/05/24 02:20:37;;;;;;;7.97;2.65;;;15.40;99.90;;;14.18;69.92;99589.66;4999079;28;20033;-75
2022/05/24 02:23:04;;;;;;;3.42;2.58;;;15.40;99.90;;;14.16;70.14;99585.31;4971919;28;20121;-75
2022/05/24 02:25:49;;;;;;;6.32;2.83;;;15.30;99.90;;;14.20;70.62;99593.03;4958624;28;20417;-76
2022/05/24 02:28:16;;;;;;;3.90;2.50;;;15.30;99.90;;;14.15;70.83;99590.75;4966378;28;20025;-75
2022/05/24 02:30:58;;;;;;;5.10;2.75;;;15.30;99.90;;;14.06;71.13;99581.75;4970695;28;20030;-75
2022/05/24 02:33:24;;;;;;;7.45;2.80;;;15.20;99.90;;;14.12;71.38;99581.25;4976549;28;20454;-76
2022/05/24 02:35:51;;;;;;;7.72;2.90;;;15.20;99.90;;;14.11;71.35;99590.16;4990903;28;20058;-75
2022/05/24 02:38:17;;;;;;;4.85;2.65;;;15.20;99.90;;;14.10;71.63;99585.84;4963300;28;20385;-75
2022/05/24 02:43:27;;;;;;;3.90;2.90;;;15.30;99.90;;;14.15;71.61;99585.47;5003822;28;20037;-75
2022/05/24 02:45:53;;;;;;;6.13;2.47;;;15.30;99.90;;;14.17;71.92;99583.53;5001269;28;20038;-75
2022/05/24 02:48:19;;;;;;;;;;;15.20;99.90;;;14.14;71.85;99581.13;5000175;28;21142;-76
2022/05/24 02:50:45;;;;;;;6.50;2.80;;;15.20;99.90;;;14.11;71.65;99576.91;4984191;28;19905;-75
2022/05/24 02:53:10;;;;;;;;;;;15.20;99.90;;;14.02;72.38;99577.66;4982113;28;20419;-76
2022/05/24 02:55:37;;;;;;;4.03;2.20;;;15.20;99.90;;;14.00;72.24;99579.59;4992753;28;19935;-76
2022/05/24 02:58:03;;;;;;;5.15;2.80;;;15.20;99.90;;;14.03;72.39;99584.63;4978555;28;20516;-76
2022/05/24 03:00:29;;;;;;;7.55;2.95;;;15.20;99.90;;;14.14;72.13;99581.13;4994812;28;20032;-75
2022/05/24 03:02:55;;;;;;;;;;;15.20;99.90;;;14.07;72.78;99578.13;4987604;28;21162;-76
2022/05/24 03:05:22;;;;;;;4.15;2.42;;;15.10;99.90;;;14.06;72.74;99581.75;4992098;28;19905;-76
2022/05/24 03:10:33;;;;;;;7.93;2.72;;;15.20;99.90;;;14.15;72.29;99591.59;4993598;28;20091;-75
2022/05/24 03:15:46;;;;;;;7.45;2.70;;;15.20;99.90;;;14.10;73.00;99584.97;4988572;28;20111;-75
2022/05/24 03:18:14;;;;;;;5.40;2.40;;;15.20;99.90;;;14.18;72.90;99587.03;4978931;28;20048;-75
2022/05/24 03:20:41;;;;;;;5.72;3.03;;;15.30;99.90;;;14.19;73.06;99586.91;5009296;28;20110;-76
2022/05/24 03:23:07;;;;;;;9.27;2.95;;;15.20;99.90;;;14.14;73.46;99583.78;4970622;28;20395;-75
2022/05/24 03:25:34;;;;;;;4.63;2.63;;;15.20;99.90;;;14.22;73.62;99580.53;4997479;28;20033;-75
2022/05/24 03:28:01;;;;;;;7.28;2.83;;;15.30;99.90;;;14.24;73.31;99579.44;4985883;28;20030;-75
2022/05/24 03:30:28;;;;;;;5.50;2.70;;;15.30;99.90;;;14.24;73.50;99581.25;4987627;28;20078;-75
2022/05/24 03:32:53;;;;;;;9.38;2.80;;;15.30;99.90;;;14.28;73.13;99580.03;4972265;28;20483;-75
2022/05/24 03:35:22;;;;;;;6.05;2.80;;;15.40;99.90;;;14.34;72.95;99587.47;4968714;28;20068;-75
2022/05/24 03:37:47;;;;;;;7.10;2.65;;;15.40;99.90;;;14.44;72.72;99583.13;4994781;28;20022;-76
2022/05/24 03:40:13;;;;;;;8.63;2.85;;;15.50;99.90;;;14.45;72.59;99578.66;4987248;28;20030;-75
2022/05/24 03:42:39;;;;;;;4.75;2.75;;;15.50;99.90;;;14.45;72.33;99576.88;4983246;28;20565;-76
2022/05/24 03:45:08;;;;;;;9.43;3.03;;;15.50;99.90;;;14.41;72.24;99578.06;4983061;28;20044;-75
2022/05/24 03:47:39;;;;;;;4.95;2.90;;;15.50;99.90;;;14.41;72.44;99570.13;4986571;28;20120;-75
2022/05/24 03:50:06;;;;;;;5.10;2.80;;;15.50;99.90;;;14.41;72.43;99575.44;5000512;28;20512;-75
2022/05/24 03:52:32;;;;;;;10.30;2.83;;;15.50;99.90;;;14.43;72.42;99573.50;4991841;28;20030;-75
2022/05/24 03:54:58;;;;;;;5.13;2.85;;;15.50;99.90;;;14.36;72.78;99575.81;5018084;28;20048;-76
2022/05/24 04:00:12;;;;;;;7.53;2.85;;;15.40;99.90;;;14.31;73.07;99580.59;4986764;28;20069;-76
2022/05/24 04:02:38;;;;;;;4.93;2.60;;;15.40;99.90;;;14.27;73.41;99578.34;4974873;28;20022;-75
2022/05/24 04:05:04;;;;;;;8.35;2.70;;;15.40;99.90;;;14.27;73.29;99578.34;4957734;28;20053;-76
2022/05/24 04:07:30;;;;;;;5.18;2.47;;;15.40;99.90;;;14.28;73.49;99577.38;4993424;28;20470;-75
2022/05/24 04:09:56;;;;;;;4.90;2.72;;;15.40;99.90;;;14.26;73.20;99576.66;4987437;28;20030;-76
2022/05/24 04:12:24;;;;;;;6.38;3.05;;;15.30;99.90;;;14.22;73.55;99580.53;5001506;28;20033;-76
2022/05/24 04:14:52;;;;;;;7.75;2.70;;;15.30;99.90;;;14.16;73.75;99587.97;5005043;28;20044;-75
2022/05/24 04:17:18;;;;;;;6.95;3.10;;;15.30;99.90;;;14.20;73.75;99588.56;4956839;28;20033;-75
2022/05/24 04:19:44;;;;;;;4.68;2.63;;;15.30;99.90;;;14.19;73.72;99589.56;4984109;28;20227;-75
2022/05/24 04:22:09;;;;;;;7.25;2.92;;;15.30;99.90;;;14.20;73.92;99593.88;4994701;28;20056;-75
2022/05/24 04:24:35;;;;;;;;;;;15.30;99.90;;;14.14;74.04;99589.91;4995298;28;20486;-75
2022/05/24 04:27:03;;;;;;;7.45;2.97;;;15.30;99.90;;;14.23;73.78;99601.56;5002216;28;19909;-75
2022/05/24 04:29:29;;;;;;;4.93;2.67;;;15.30;99.90;;;14.20;74.07;99600.97;4991755;28;20041;-76
2022/05/24 04:31:55;;;;;;;7.53;3.28;;;15.30;99.90;;;14.13;74.07;99600.63;5000575;28;20021;-75
2022/05/24 04:34:20;;;;;;;5.97;2.65;;;15.30;99.90;;;14.20;74.25;99599.16;5004141;28;20528;-75
2022/05/24 04:36:46;;;;;;;;;;;15.30;99.90;;;14.28;74.27;99601.22;4985815;28;20037;-75
2022/05/24 04:39:13;;;;;;;10.60;2.97;;;15.30;99.90;;;14.30;74.22;99616.00;4992413;28;19905;-75
2022/05/24 04:44:23;;;;;;;8.50;3.00;;;15.40;99.90;;;14.37;73.76;99605.78;4964418;28;20056;-75
2022/05/24 04:47:07;;;;;;;5.25;3.00;;;15.50;99.90;;;14.46;73.71;99601.53;4979547;28;20069;-77
2022/05/24 04:49:33;;;;;;;8.98;3.08;;;15.50;99.90;;;14.58;73.17;99605.88;4987444;28;20058;-75
2022/05/24 04:51:59;;;;;;;8.43;2.47;;;15.60;99.90;;;14.67;72.79;99606.94;4993597;28;20482;-75
2022/05/24 04:54:25;;;;;;;10.10;2.83;;;15.70;99.90;;;14.82;72.43;99610.16;5000913;28;20183;-76
2022/05/24 04:56:51;;;;;;;7.63;3.08;;;15.80;99.90;;;14.87;72.42;99608.78;4998798;28;20028;-75
2022/05/24 04:59:17;;;;;;;7.20;3.33;;;15.80;99.90;;;14.92;72.54;99613.69;5003406;28;20022;-75
2022/05/24 05:01:44;;;;;;;;;;;15.90;99.90;;;14.84;72.40;99611.69;4983483;28;20724;-75
2022/05/24 05:04:12;;;;;;;6.65;3.10;;;15.80;99.90;;;14.80;72.86;99612.91;4988892;28;19985;-76
2022/05/24 05:06:43;;;;;;;5.70;3.63;;;15.80;99.90;;;14.86;72.98;99608.91;4988625;28;20033;-76
2022/05/24 05:09:10;;;;;;;9.13;3.47;;;15.80;99.90;;;14.81;73.86;99606.63;4988178;28;20034;-75
2022/05/24 05:11:39;;;;;;;6.60;3.60;;;15.80;99.90;;;14.79;74.83;99610.38;4969526;28;20036;-75
2022/05/24 05:14:06;;;;;;;8.63;2.92;;;15.80;99.90;;;14.76;75.57;99614.97;4985710;28;20037;-75
2022/05/24 05:16:32;;;;;;;10.05;4.18;;;15.80;99.90;;;14.83;75.66;99614.47;5001521;28;21150;-75
2022/05/24 05:18:57;;;;;;;9.15;3.40;;;15.90;99.90;;;14.80;75.92;99612.91;4996309;28;20021;-75
2022/05/24 05:21:23;;;;;;;;;;;15.90;99.90;;;14.75;76.57;99617.72;4989886;28;20026;-76
2022/05/24 05:23:49;;;;;;;7.72;3.72;;;15.80;99.90;;;14.59;77.78;99604.06;4974601;28;20384;-75
2022/05/24 05:26:15;;;;;;;5.65;3.42;;;15.70;99.90;;;14.64;77.84;99602.72;4969307;28;20734;-75
2022/05/24 05:28:41;;;;;;;10.27;5.30;;;15.70;99.90;;;14.71;77.56;99611.03;4987621;28;20056;-76
2022/05/24 05:34:05;;;;;;;11.57;4.50;;;15.70;99.90;;;14.59;78.93;99620.81;5010104;28;20089;-75
2022/05/24 05:36:33;;;;;;;5.78;4.15;;;15.60;99.90;;;14.42;79.78;99611.53;4974851;28;20043;-74
2022/05/24 05:38:59;;;;;;;6.55;3.63;;;15.60;99.90;;;14.39;80.58;99611.78;4990062;28;20021;-75
2022/05/24 05:41:32;;;;;;;8.43;4.20;;;15.50;99.90;;;14.39;81.68;99617.09;4976227;28;20017;-75
2022/05/24 05:43:59;;;;;;;9.63;4.30;;;15.50;99.90;;;14.39;82.21;99614.44;4993844;28;20088;-75
2022/05/24 05:46:26;;;;;;;11.07;3.42;;;15.50;99.90;;;14.23;82.98;99613.97;5001305;28;20475;-76
2022/05/24 05:48:51;;;;;;;8.27;4.47;;;15.30;99.90;;;14.15;84.70;99623.38;4999424;28;20013;-75
2022/05/24 05:51:19;;;;;;;9.85;4.95;;;15.30;99.90;;;14.11;85.86;99619.28;4990540;28;20060;-75
2022/05/24 05:53:48;;;;;;;7.32;4.55;;;15.20;99.90;;;14.09;86.77;99621.19;4955126;28;20172;-75
2022/05/24 05:56:18;;;;;;;10.93;4.90;;;15.20;99.90;;;14.05;86.96;99625.03;4987188;28;20440;-75
2022/05/24 05:58:45;;;;;;;10.63;4.75;;;15.20;99.90;;;14.09;87.72;99621.19;4986874;28;20021;-75
2022/05/24 06:01:28;;;;;;;13.00;5.15;;;15.10;99.90;;;14.11;88.25;99621.91;5002517;28;20616;-75
2022/05/24 06:03:55;;;;;;;12.60;4.28;;;15.20;99.90;;;14.18;88.37;99629.38;4966412;28;20084;-75
2022/05/24 06:06:24;;;;;;;14.27;5.55;;;15.20;99.90;;;14.19;88.20;99634.56;4980313;28;20402;-75
2022/05/24 06:08:50;;;;;;;13.15;6.10;;;15.20;99.90;;;14.18;88.09;99640.81;4985100;28;20462;-74
2022/05/24 06:11:16;;;;;;;9.95;5.60;;;15.20;99.90;;;14.16;89.13;99640.91;4982516;28;20022;-75
2022/05/24 06:13:41;;;;;;;6.25;4.30;;;15.20;99.90;;;14.09;89.81;99638.88;4984172;28;20064;-74
2022/05/24 06:16:10;;;;;;;6.95;4.68;;;15.10;99.90;;;14.04;90.57;99641.91;4983181;28;20529;-75
2022/05/24 06:18:37;;;;;;;9.23;4.88;;;15.10;99.90;;;13.99;91.63;99656.44;4977201;28;20047;-75
2022/05/24 06:21:04;;;;;;;10.90;5.47;;;15.10;99.90;;;14.00;91.90;99653.69;4994616;28;20093;-75
2022/05/24 06:23:29;;;;;;;10.20;5.35;;;15.00;99.90;;;13.99;92.98;99659.94;4984504;28;20040;-74
2022/05/24 06:25:55;;;;;;;11.98;4.90;;;15.10;99.90;;;13.99;93.57;99662.56;5021507;28;20113;-76
2022/05/24 06:28:20;;;;;;;;;;;15.00;99.90;;;13.92;95.15;99661.38;4992808;28;20031;-74
2022/05/24 06:30:46;;;;;;;10.90;4.60;;;15.00;99.90;;;13.94;95.13;99677.97;4967900;28;20281;-74
2022/05/24 06:33:12;;;;;;;10.20;4.80;;;15.00;99.90;;;13.88;95.18;99676.63;4998898;28;20033;-75
2022/05/24 06:35:39;;;;;;;;;;;15.00;99.90;;;13.86;96.72;99685.66;4987408;28;20030;-74
2022/05/24 06:38:05;;;;;;;;;;;14.90;99.90;;;13.87;97.35;99687.34;5023035;28;20342;-75
2022/05/24 06:40:31;;;;;;;11.52;5.93;;;14.90;99.90;;;13.87;97.86;99692.66;4986610;28;19915;-75
2022/05/24 06:42:57;;;;;;;;;;;14.90;99.90;;;13.99;98.30;99701.44;4973565;28;20033;-75
2022/05/24 06:45:22;;;;;;;11.48;5.38;;;15.00;99.90;;;14.01;98.87;99705.66;4996811;28;19921;-74
2022/05/24 06:47:48;;;;;;;;;;;15.00;99.90;;;14.01;100.00;99705.66;4989615;28;21526;-74
2022/05/24 06:50:15;;;;;;;11.48;5.45;;;15.00;99.90;;;14.03;100.00;99709.00;5003972;28;19917;-74
2022/05/24 06:52:44;;;;;;;9.93;5.28;;;15.00;99.90;;;14.17;99.95;99710.63;4994318;28;20497;-74
2022/05/24 06:55:11;;;;;;;10.30;5.55;;;15.10;99.90;;;14.19;100.00;99707.81;4992163;28;20033;-76
2022/05/24 06:57:37;;;;;;;13.85;6.32;;;15.20;99.90;;;14.29;100.00;99708.81;4973754;28;20025;-75
2022/05/24 07:02:58;;;;;;;9.82;6.80;;;15.20;99.90;;;14.30;100.00;99718.44;5005429;28;20696;-75
2022/05/24 07:05:24;;;;;;;11.10;6.28;;;15.20;99.90;;;14.24;100.00;99718.91;4971710;28;20034;-74
2022/05/24 07:07:49;;;;;;;11.40;6.38;;;15.20;99.90;;;14.31;100.00;99725.41;4997370;28;20053;-76
2022/05/24 07:10:18;;;;;;;;;;;15.20;99.90;;;14.25;100.00;99723.25;5005571;28;20061;-75
2022/05/24 07:12:45;;;;;;;9.82;5.78;;;15.20;99.90;;;14.24;100.00;99727.69;4969137;28;19917;-75
2022/05/24 07:15:13;;;;;;;13.88;6.50;;;15.20;99.90;;;14.30;100.00;99723.75;4978294;28;20033;-75
2022/05/24 07:17:39;;;;;;;8.10;6.20;;;15.20;99.90;;;14.33;100.00;99726.97;5002107;28;20362;-74
2022/05/24 07:20:05;;;;;;;14.52;7.55;;;15.30;99.90;;;14.41;100.00;99736.97;5001487;28;20083;-75
2022/05/24 07:22:35;;;;;;;13.35;7.35;;;15.30;99.90;;;14.34;100.00;99741.03;5008551;28;20113;-74
2022/05/24 07:25:01;;;;;;;11.80;7.70;;;15.30;99.90;;;14.35;100.00;99738.28;4980239;28;20026;-74
2022/05/24 07:27:27;;;;;;;12.15;7.25;;;15.30;99.90;;;14.11;100.00;99738.38;5005158;28;20033;-74
2022/05/24 07:29:53;;;;;;;13.00;7.90;;;15.40;99.90;;;14.27;100.00;99753.91;4992143;28;20104;-74
2022/05/24 07:32:18;;;;;;;;;;;15.40;99.90;;;14.33;100.00;99748.16;4994910;28;20103;-73
2022/05/24 07:34:44;;;;;;;15.82;7.32;;;15.40;99.90;;;14.28;100.00;99750.31;4962981;28;19925;-74
2022/05/24 07:37:15;;;;;;;11.15;7.35;;;15.40;99.90;;;14.42;100.00;99759.00;4978483;28;20045;-74
2022/05/24 07:39:41;;;;;;;13.40;7.82;;;15.40;99.90;;;14.51;100.00;99760.91;4977291;28;20025;-74
2022/05/24 07:47:21;;;;;;;12.82;7.63;;;15.60;99.90;;;14.85;100.00;99767.09;5006396;28;20595;-74
2022/05/24 07:49:47;;;;;;;9.73;6.97;;;15.70;99.90;;;15.03;100.00;99769.22;4993974;28;20022;-74
2022/05/24 07:52:13;;;;;;;9.85;6.97;;;15.80;99.90;;;15.18;100.00;99778.59;4985601;28;20105;-74
2022/05/24 07:54:38;;;;;;;12.68;7.00;;;16.00;99.90;;;15.26;100.00;99773.50;4994570;28;20490;-74
2022/05/24 07:57:08;;;;;;;;;;;16.00;99.90;;;15.39;100.00;99773.34;4989079;28;20029;-73
2022/05/24 07:59:36;;;;;;;9.55;6.47;;;16.10;99.90;;;15.45;100.00;99779.97;4971657;28;19963;-74
2022/05/24 08:02:02;;;;;;;11.25;6.63;;;16.30;99.90;;;15.53;100.00;99782.84;4977744;28;20548;-74
2022/05/24 08:04:28;;;;;;;12.40;7.38;;;16.30;99.90;;;15.57;100.00;99793.09;5002421;28;20486;-74
2022/05/24 08:06:55;;;;;;;10.75;7.13;;;16.40;99.90;;;15.63;100.00;99801.50;4997473;28;20069;-74
2022/05/24 08:09:21;;;;;;;9.40;7.05;;;16.40;99.90;;;15.68;100.00;99799.28;4990774;28;20378;-73
2022/05/24 08:11:47;;;;;;;17.15;7.45;;;16.50;99.90;;;15.76;100.00;99803.03;5001261;28;20026;-74
2022/05/24 08:14:12;;;;;;;;;;;16.50;99.90;;;15.82;100.00;99811.47;4985570;28;20594;-74
2022/05/24 08:16:40;;;;;;;11.98;7.78;;;16.60;99.90;;;15.85;100.00;99811.19;4976946;28;19913;-74
2022/05/24 08:19:08;;;;;;;11.40;7.50;;;16.60;99.90;;;15.88;100.00;99826.88;4992503;28;20037;-74
2022/05/24 08:21:34;;;;;;;14.25;8.23;;;16.70;99.90;;;15.99;100.00;99824.19;4995421;28;20032;-74
2022/05/24 08:24:00;;;;;;;14.50;8.38;;;16.80;99.90;;;16.10;100.00;99825.94;4980489;28;20478;-75
2022/05/24 08:26:26;;;;;;;14.73;8.15;;;16.90;99.90;;;16.18;100.00;99824.31;4997589;28;20548;-74
2022/05/24 08:28:52;;;;;;;14.25;8.02;;;17.00;99.90;;;16.33;100.00;99826.66;4986949;28;20045;-74
2022/05/24 08:31:19;;;;;;;11.88;8.40;;;17.10;99.90;;;16.55;100.00;99820.34;4992118;28;20026;-74
2022/05/24 08:33:49;;;;;;;12.45;7.93;;;17.20;99.90;;;16.83;100.00;99826.81;4977366;28;20036;-74
2022/05/24 08:36:14;;;;;;;10.95;7.25;;;17.50;99.90;;;17.15;100.00;99833.78;4976559;28;20666;-74
2022/05/24 08:38:42;;;;;;;11.13;7.75;;;17.70;99.90;;;17.35;100.00;99840.81;5002110;28;20083;-73
2022/05/24 08:41:22;;;;;;;12.65;7.75;;;17.90;99.90;;;17.43;99.47;99843.66;4991174;28;20041;-74
2022/05/24 08:50:05;;;;;;;13.93;8.60;;;18.10;99.90;;;17.43;98.42;99858.78;5002330;28;20040;-74
2022/05/24 08:52:39;;;;;;;11.13;8.52;;;18.10;99.90;;;17.33;98.19;99866.72;5005240;28;20079;-74
2022/05/24 08:55:06;;;;;;;10.50;8.82;;;18.00;99.90;;;17.22;98.06;99875.66;4990972;28;20057;-75
2022/05/24 08:57:57;;;;;;;12.05;8.75;;;17.90;99.90;;;17.10;99.39;99881.19;4987008;28;20022;-74
2022/05/24 09:00:40;;;;;;;14.43;9.20;;;17.80;99.90;;;16.89;100.00;99878.59;4965165;28;20070;-74
2022/05/24 09:03:08;;;;;;;16.10;9.30;;;17.60;99.90;;;16.64;100.00;99880.66;4998409;28;20033;-74
2022/05/24 09:06:17;;;;;;;22.02;10.70;;;17.60;99.90;;;16.59;100.00;99883.72;4990447;28;20030;-74
2022/05/24 09:09:19;;;;;;;17.90;10.23;;;17.40;99.90;;;16.50;100.00;99881.88;4975467;28;22220;-74
2022/05/24 09:12:25;;;;;;;16.27;10.38;;;17.40;99.90;;;16.63;100.00;99886.97;5004905;28;20060;-74
2022/05/24 09:15:16;;;;;;;17.95;10.85;;;17.50;99.90;;;16.63;100.00;99894.09;4999063;28;20051;-74
2022/05/24 09:18:20;;;;;;;20.08;11.45;;;17.50;99.90;;;16.57;100.00;99898.97;5001719;28;20034;-74
2022/05/24 09:20:50;;;;;;;15.68;11.07;;;17.50;99.90;;;16.50;100.00;99896.94;4958635;28;20453;-74
2022/05/24 09:23:32;;;;;;;14.70;9.32;;;17.30;99.90;;;16.30;100.00;99896.81;4994059;28;20034;-74
2022/05/24 09:26:09;;;;;;;15.65;9.32;;;17.20;99.90;;;16.30;100.00;99901.28;4983402;28;20116;-74
2022/05/24 09:28:56;;;;;;;9.25;7.05;;;17.20;99.90;;;16.33;100.00;99909.00;4971378;28;20099;-74
2022/05/24 09:31:41;;;;;;;15.07;8.20;;;17.20;99.90;;;16.36;100.00;99914.88;4973893;28;20040;-74
2022/05/24 09:34:19;;;;;;;11.10;8.15;;;17.20;99.90;;;16.37;100.00;99916.59;5003634;28;20061;-74
2022/05/24 09:37:02;;;;;;;14.35;8.43;;;17.20;99.90;;;16.42;100.00;99921.50;5020101;28;20037;-74
2022/05/24 09:39:33;;;;;;;13.45;8.60;;;17.20;99.90;;;16.46;100.00;99912.31;5000106;28;20041;-74
2022/05/24 09:42:36;;;;;;;17.00;9.18;;;17.20;99.90;;;16.51;100.00;99912.75;4997217;28;20172;-74
2022/05/24 09:45:20;;;;;;;13.68;8.57;;;17.20;99.90;;;16.51;100.00;99915.41;4994167;28;20060;-74
2022/05/24 09:47:55;;;;;;;15.65;7.60;;;17.30;99.90;;;16.55;100.00;99911.53;4985916;28;20033;-75
2022/05/24 09:50:33;;;;;;;19.17;8.95;;;17.30;99.90;;;16.62;100.00;99911.84;4985368;28;20124;-73
2022/05/24 09:53:28;;;;;;;14.02;8.23;;;17.30;99.90;;;16.68;100.00;99919.31;5005200;28;20018;-74
2022/05/24 09:56:20;;;;;;;15.45;8.82;;;17.50;99.90;;;16.77;100.00;99925.66;4993331;28;20516;-74
2022/05/24 09:59:02;;;;;;;13.18;9.18;;;17.50;99.90;;;16.92;100.00;99937.66;4978662;28;20442;-74
2022/05/24 10:01:35;;;;;;;13.43;9.68;;;17.70;99.90;;;17.08;100.00;99953.13;4973887;28;20379;-74
2022/05/24 10:04:22;;;;;;;13.68;9.10;;;17.80;99.90;;;17.20;100.00;99957.41;4984967;28;20062;-74
2022/05/24 10:07:20;;;;;;;11.48;8.68;;;17.90;99.90;;;17.30;98.88;99959.25;4999745;28;20030;-73
2022/05/24 10:10:27;;;;;;;13.52;7.35;;;18.00;99.90;;;17.35;97.92;99957.06;4983667;28;20032;-74
2022/05/24 10:13:24;;;;;;;17.10;7.93;;;18.10;99.90;;;17.36;97.06;99967.56;4980360;28;20017;-74
2022/05/24 10:16:22;;;;;;;13.35;7.90;;;18.00;99.90;;;17.32;96.85;99974.16;4998060;28;20040;-74
2022/05/24 10:19:21;;;;;;;11.00;7.20;;;18.00;99.90;;;17.38;96.14;99965.59;4973496;28;20432;-74
2022/05/24 10:21:59;;;;;;;13.38;7.75;;;18.10;99.90;;;17.47;96.50;99973.75;5000845;28;20033;-74
2022/05/24 10:25:01;;;;;;;15.35;8.10;;;18.20;99.90;;;17.61;96.08;99979.56;5010456;28;20103;-74
2022/05/24 10:27:38;;;;;;;11.40;7.90;;;18.30;99.90;;;17.77;95.38;99973.72;4976063;28;20041;-74
2022/05/24 10:30:31;;;;;;;17.10;8.63;;;18.40;99.90;;;17.96;94.46;99978.28;4992080;28;20061;-74
2022/05/24 10:40:23;;;;;;;14.88;8.27;;;18.90;99.90;;;18.56;91.08;99988.84;4998944;28;20091;-74
2022/05/24 10:43:36;;;;;;;10.57;7.38;;;19.20;99.90;;;18.78;89.35;99986.91;5008394;28;20083;-74
2022/05/24 10:46:14;;;;;;;11.25;7.60;;;19.40;99.90;;;19.10;89.57;100001.75;4984985;28;20043;-75
2022/05/24 10:49:49;;;;;;;12.60;7.32;;;19.70;99.90;;;19.53;87.06;100011.03;4994212;28;20113;-75
2022/05/24 10:53:01;;;;;;;15.13;6.97;;;20.30;99.90;;;20.15;82.22;100012.13;4981565;28;20040;-74
2022/05/24 10:55:43;;;;;;;13.45;6.93;;;20.70;99.90;;;20.87;80.68;100007.63;4992743;28;20514;-75
2022/05/24 10:58:19;;;;;;;9.60;6.80;;;21.30;99.90;;;21.45;77.95;100024.13;4988309;28;20729;-75
2022/05/24 11:01:10;;;;;;;9.23;6.13;;;21.80;99.90;;;21.81;74.22;100021.25;4984447;28;20031;-75
2022/05/24 11:04:00;;;;;;;9.13;6.15;;;22.20;99.90;;;22.31;73.58;100025.78;4990951;28;20030;-74
2022/05/24 11:06:59;;;;;;;9.88;5.57;;;22.60;99.90;;;22.61;71.18;100029.69;4998543;28;20032;-75
2022/05/24 11:09:32;;;;;;;4.65;3.10;;;22.90;99.90;;;22.76;65.73;100037.06;4995991;28;20049;-75
2022/05/24 11:12:15;;;;;;;6.40;3.20;;;23.10;99.90;;;22.81;67.42;100034.75;5007147;28;20037;-75
2022/05/24 11:15:23;;;;;;;5.22;2.95;;;23.30;99.90;;;23.06;65.37;100049.00;4986322;28;20171;-75
2022/05/24 11:17:51;;;;;;;8.35;3.10;;;23.40;99.90;;;23.11;63.33;100062.78;5011518;28;20033;-75
2022/05/24 11:20:32;;;;;;;4.60;2.72;;;23.40;99.90;;;22.90;63.41;100063.25;4994419;28;20117;-75
2022/05/24 11:23:15;;;;;;;6.75;2.80;;;23.30;99.90;;;22.47;63.50;100070.59;5007357;28;20033;-75
2022/05/24 11:25:53;;;;;;;7.30;2.88;;;23.00;99.90;;;22.05;63.94;100092.88;4982978;28;20025;-75
2022/05/24 11:28:33;;;;;;;5.25;2.97;;;22.60;99.90;;;21.72;64.38;100090.03;4987298;28;20041;-75